Time;durP1;ratioP1;P1;durP2;ratioP2;P2;SDS_P1;SDS_P2;PMS_P1;PMS_P2;Temp;Humidity;BMP_temperature;BMP_pressure;BME280_temperature;BME280_humidity;BME280_pressure;Samples;Min_cycle;Max_cycle;Signal;HPM_P1;HPM_P2
2021/05/09 00:01:58;;;;;;;3.35;2.40;;;;;;;9.71;68.96;99992.16;5036169;28;20040;-69
2021/05/09 00:04:24;;;;;;;4.57;2.38;;;;;;;9.59;68.26;99992.59;5033225;28;20106;-70
2021/05/09 00:06:50;;;;;;;3.72;2.92;;;;;;;9.52;69.95;99984.47;5038732;28;20061;-70
2021/05/09 00:09:16;;;;;;;6.07;4.35;;;;;;;9.44;70.09;99977.38;5049237;28;20080;-70
2021/05/09 00:11:41;;;;;;;6.32;4.22;;;;;;;9.36;70.02;99978.13;5043729;28;20037;-70
2021/05/09 00:14:07;;;;;;;8.13;4.30;;;;;;;9.30;68.80;99970.03;5047637;28;20810;-69
2021/05/09 00:16:35;;;;;;;3.67;2.65;;;;;;;9.35;68.70;99971.22;5041766;28;20029;-70
2021/05/09 00:19:01;;;;;;;4.53;2.35;;;;;;;9.49;68.17;99961.88;5039092;28;20045;-70
2021/05/09 00:21:27;;;;;;;2.20;1.65;;;;;;;9.70;67.08;99956.19;5047980;28;20042;-69
2021/05/09 00:23:52;;;;;;;3.90;1.38;;;;;;;9.96;64.90;99961.38;5044525;28;20091;-70
2021/05/09 00:26:18;;;;;;;1.88;1.20;;;;;;;10.27;63.90;99950.16;5048894;28;20458;-70
2021/05/09 00:28:45;;;;;;;2.67;1.20;;;;;;;10.52;63.63;99952.88;5047994;28;20041;-69
2021/05/09 00:31:11;;;;;;;2.75;1.30;;;;;;;10.69;62.40;99951.03;5030351;28;20494;-69
2021/05/09 00:33:37;;;;;;;3.05;1.40;;;;;;;10.99;61.61;99952.16;5041485;28;20227;-69
2021/05/09 00:36:04;;;;;;;3.65;1.30;;;;;;;11.20;60.64;99946.31;5039874;28;20275;-70
2021/05/09 00:38:30;;;;;;;1.92;1.35;;;;;;;11.34;60.61;99939.47;5042479;28;20040;-69
2021/05/09 00:40:57;;;;;;;1.65;1.20;;;;;;;11.50;59.56;99934.13;5048137;28;20086;-70
2021/05/09 00:43:22;;;;;;;1.75;1.30;;;;;;;11.73;58.79;99938.63;5050172;28;20033;-70
2021/05/09 00:45:48;;;;;;;2.03;1.08;;;;;;;11.84;58.50;99941.72;5041253;28;20517;-70
2021/05/09 00:48:19;;;;;;;3.25;1.40;;;;;;;11.95;58.30;99929.13;5038267;28;20037;-70
2021/05/09 00:50:45;;;;;;;3.73;1.47;;;;;;;12.18;57.75;99926.47;5046021;28;20119;-70
2021/05/09 00:53:14;;;;;;;2.05;1.40;;;;;;;12.31;57.20;99934.66;5057672;28;20330;-70
2021/05/09 00:55:42;;;;;;;1.77;1.20;;;;;;;12.34;57.30;99939.59;5043457;28;20331;-70
2021/05/09 00:58:11;;;;;;;3.47;1.00;;;;;;;12.27;57.84;99933.38;5033392;28;20043;-70
2021/05/09 01:00:36;;;;;;;0.98;0.80;;;;;;;12.17;58.09;99932.78;5027974;28;20036;-70
2021/05/09 01:03:09;;;;;;;3.15;1.98;;;;;;;11.82;61.98;99943.75;5043698;28;20402;-70
2021/05/09 01:05:35;;;;;;;2.90;2.15;;;;;;;11.59;61.38;99940.22;5040873;28;20116;-70
2021/05/09 01:08:03;;;;;;;2.88;1.90;;;;;;;11.33;65.46;99937.84;5047133;28;20486;-71
2021/05/09 01:10:29;;;;;;;3.03;2.22;;;;;;;11.13;63.80;99943.53;5041665;28;20497;-70
2021/05/09 01:12:56;;;;;;;3.00;2.08;;;;;;;11.04;63.02;99941.91;5050408;28;20059;-70
2021/05/09 01:15:23;;;;;;;3.45;2.33;;;;;;;10.89;64.14;99940.94;5036249;28;20053;-70
2021/05/09 01:17:50;;;;;;;3.35;2.55;;;;;;;10.74;67.47;99935.50;5044268;28;20052;-70
2021/05/09 01:20:16;;;;;;;2.70;1.85;;;;;;;10.58;66.12;99934.53;5034314;28;20033;-70
2021/05/09 01:22:43;;;;;;;3.03;2.03;;;;;;;10.48;68.00;99928.56;5038586;28;20037;-70
2021/05/09 01:25:11;;;;;;;2.45;1.60;;;;;;;10.40;67.22;99926.75;5045033;28;20044;-70
2021/05/09 01:27:38;;;;;;;3.85;1.85;;;;;;;10.38;65.76;99926.09;5047868;28;20565;-70
2021/05/09 01:30:10;;;;;;;2.00;1.50;;;;;;;10.37;67.00;99923.63;5039773;28;20037;-71
2021/05/09 01:32:37;;;;;;;3.20;2.00;;;;;;;10.26;67.93;99923.94;5028941;28;20047;-70
2021/05/09 01:35:04;;;;;;;3.08;2.42;;;;;;;10.09;69.31;99917.81;5053290;28;20043;-70
2021/05/09 01:37:30;;;;;;;4.18;2.60;;;;;;;10.00;69.32;99911.69;5046553;28;20037;-70
2021/05/09 01:39:56;;;;;;;4.03;2.60;;;;;;;9.90;68.20;99903.91;5045354;28;20082;-70
2021/05/09 01:42:22;;;;;;;5.35;2.80;;;;;;;9.79;70.78;99907.66;5049635;28;20107;-70
2021/05/09 01:44:58;;;;;;;3.25;2.78;;;;;;;9.63;71.40;99906.81;5042422;28;20058;-70
2021/05/09 01:47:25;;;;;;;4.18;2.80;;;;;;;9.49;71.51;99901.19;5037417;28;20042;-69
2021/05/09 01:49:51;;;;;;;4.63;2.60;;;;;;;9.45;71.29;99904.28;5048676;28;20036;-70
2021/05/09 01:52:19;;;;;;;2.70;2.10;;;;;;;9.45;69.68;99899.84;5042852;28;20086;-70
2021/05/09 01:54:46;;;;;;;4.18;2.30;;;;;;;9.44;71.13;99898.19;5054461;28;20084;-69
2021/05/09 01:57:13;;;;;;;3.00;2.20;;;;;;;9.42;72.07;99901.97;5049712;28;20095;-69
2021/05/09 01:59:39;;;;;;;3.08;2.30;;;;;;;9.39;71.69;99902.28;5060012;28;20036;-69
2021/05/09 02:02:05;;;;;;;2.60;1.80;;;;;;;9.40;71.58;99896.84;5051745;28;20029;-69
2021/05/09 02:04:32;;;;;;;2.30;1.90;;;;;;;9.40;71.13;99896.84;5049807;28;20047;-70
2021/05/09 02:06:57;;;;;;;2.67;2.00;;;;;;;9.45;69.17;99891.91;5044001;28;20589;-70
2021/05/09 02:09:24;;;;;;;3.38;2.00;;;;;;;9.46;70.47;99893.59;5049070;28;20120;-70
2021/05/09 02:11:50;;;;;;;2.38;1.70;;;;;;;9.47;70.20;99891.78;5043983;28;20029;-70
2021/05/09 02:14:16;;;;;;;2.00;1.60;;;;;;;9.52;69.48;99898.22;5046142;28;20033;-71
2021/05/09 02:16:42;;;;;;;2.50;1.70;;;;;;;9.54;68.78;99896.25;5048349;28;20033;-70
2021/05/09 02:19:08;;;;;;;2.55;1.90;;;;;;;9.55;69.91;99902.34;5046528;28;20037;-70
2021/05/09 02:21:35;;;;;;;3.13;2.00;;;;;;;9.55;70.26;99899.69;5047996;28;20567;-70
2021/05/09 02:24:01;;;;;;;2.50;1.90;;;;;;;9.55;69.88;99895.25;5047602;28;20033;-70
2021/05/09 02:26:29;;;;;;;2.97;2.38;;;;;;;9.45;73.03;99899.84;5047843;28;20059;-70
2021/05/09 02:28:55;;;;;;;2.90;2.20;;;;;;;9.46;69.63;99893.59;5042610;28;20033;-70
2021/05/09 02:31:22;;;;;;;3.47;2.20;;;;;;;9.41;70.99;99890.56;5046561;28;20048;-70
2021/05/09 02:33:48;;;;;;;3.00;1.90;;;;;;;9.41;70.09;99895.84;5037165;28;20043;-70
2021/05/09 02:36:15;;;;;;;5.03;2.25;;;;;;;9.42;69.46;99899.34;5043839;28;20037;-70
2021/05/09 02:38:41;;;;;;;2.78;2.50;;;;;;;9.32;72.38;99892.38;5047240;28;20033;-70
2021/05/09 02:41:06;;;;;;;4.10;2.50;;;;;;;9.29;72.78;99889.22;5045561;28;20037;-70
2021/05/09 02:43:32;;;;;;;2.90;2.38;;;;;;;9.26;71.95;99890.38;5049523;28;20025;-70
2021/05/09 02:45:58;;;;;;;2.83;2.10;;;;;;;9.25;72.07;99891.34;5041105;28;20033;-70
2021/05/09 02:48:23;;;;;;;3.92;2.60;;;;;;;9.21;71.32;99894.47;5040893;28;20486;-70
2021/05/09 02:50:49;;;;;;;3.42;2.72;;;;;;;9.14;72.67;99889.81;5050795;28;20433;-70
2021/05/09 02:53:14;;;;;;;3.17;2.15;;;;;;;9.12;72.61;99901.50;5045243;28;20073;-70
2021/05/09 02:55:40;;;;;;;2.67;2.00;;;;;;;9.10;72.78;99901.66;5045411;28;20523;-70
2021/05/09 02:58:05;;;;;;;3.55;2.40;;;;;;;9.05;73.28;99898.66;5048349;28;20045;-71
2021/05/09 03:00:30;;;;;;;4.07;2.65;;;;;;;8.98;73.96;99899.47;5048675;28;20053;-70
2021/05/09 03:02:56;;;;;;;4.07;3.08;;;;;;;9.00;71.60;99903.59;5046177;28;20120;-70
2021/05/09 03:05:21;;;;;;;2.85;2.20;;;;;;;9.00;72.04;99900.13;5051230;28;20489;-70
2021/05/09 03:07:46;;;;;;;4.13;2.30;;;;;;;9.07;71.79;99907.25;5045930;28;20061;-70
2021/05/09 03:10:12;;;;;;;4.88;3.15;;;;;;;8.98;73.51;99900.28;5048962;28;20039;-70
2021/05/09 03:12:37;;;;;;;3.67;2.70;;;;;;;8.91;74.59;99897.47;5045128;28;20040;-69
2021/05/09 03:15:03;;;;;;;4.20;2.47;;;;;;;8.91;74.46;99904.53;5052874;28;20037;-70
2021/05/09 03:17:31;;;;;;;4.10;1.90;;;;;;;8.93;73.53;99910.47;5043835;28;20385;-70
2021/05/09 03:19:56;;;;;;;3.50;1.85;;;;;;;8.98;73.48;99910.00;5052664;28;20052;-70
2021/05/09 03:22:22;;;;;;;2.40;2.00;;;;;;;8.93;74.85;99898.13;5043813;28;20025;-71
2021/05/09 03:24:47;;;;;;;3.35;2.42;;;;;;;8.89;77.10;99903.84;5052797;28;20052;-71
2021/05/09 03:27:12;;;;;;;3.28;2.10;;;;;;;8.91;74.86;99899.25;5043743;28;20037;-70
2021/05/09 03:29:37;;;;;;;4.40;3.05;;;;;;;8.82;74.96;99900.19;5052332;28;20021;-70
2021/05/09 03:32:03;;;;;;;3.20;2.50;;;;;;;8.77;75.86;99889.28;5043030;28;20043;-71
2021/05/09 03:34:28;;;;;;;3.28;2.50;;;;;;;8.74;75.91;99892.25;5043587;28;20044;-70
2021/05/09 03:36:53;;;;;;;3.85;2.65;;;;;;;8.72;76.07;99892.38;5042203;28;20114;-71
2021/05/09 03:39:20;;;;;;;2.97;2.30;;;;;;;8.67;75.42;99884.94;5050608;28;20025;-70
2021/05/09 03:41:45;;;;;;;4.68;2.90;;;;;;;8.61;76.16;99882.94;5040602;28;20041;-70
2021/05/09 03:44:11;;;;;;;5.60;3.20;;;;;;;8.55;76.59;99890.63;5040547;28;20044;-71
2021/05/09 03:46:36;;;;;;;3.35;2.55;;;;;;;8.53;76.30;99882.06;5051614;28;20095;-71
2021/05/09 03:49:01;;;;;;;4.68;3.03;;;;;;;8.50;77.70;99878.75;5045172;28;20560;-70
2021/05/09 03:51:27;;;;;;;3.72;3.28;;;;;;;8.45;76.67;99883.66;5048214;28;20044;-70
2021/05/09 03:53:52;;;;;;;5.22;3.03;;;;;;;8.41;77.15;99884.94;5045766;28;20048;-70
2021/05/09 03:56:17;;;;;;;4.78;3.08;;;;;;;8.39;77.11;99875.50;5050235;28;20040;-70
2021/05/09 03:58:43;;;;;;;3.70;3.10;;;;;;;8.37;77.43;99875.66;5046573;28;20169;-70
2021/05/09 04:01:08;;;;;;;4.68;3.47;;;;;;;8.33;77.75;99876.13;5050655;28;20037;-70
2021/05/09 04:03:33;;;;;;;3.55;2.95;;;;;;;8.36;76.99;99878.44;5052664;28;20088;-70
2021/05/09 04:05:59;;;;;;;5.15;3.13;;;;;;;8.42;75.56;99875.25;5044218;28;20061;-70
2021/05/09 04:08:26;;;;;;;3.58;2.58;;;;;;;8.44;77.33;99879.38;5050307;28;20646;-70
2021/05/09 04:10:53;;;;;;;3.05;2.35;;;;;;;8.56;74.88;99877.31;5044136;28;20051;-70
2021/05/09 04:13:20;;;;;;;2.55;2.20;;;;;;;8.62;74.68;99879.31;5050317;28;20032;-71
2021/05/09 04:15:46;;;;;;;3.22;2.70;;;;;;;8.63;75.41;99875.72;5045574;28;20061;-70
2021/05/09 04:18:11;;;;;;;4.40;3.28;;;;;;;8.63;76.08;99878.34;5039828;28;20095;-71
2021/05/09 04:20:37;;;;;;;3.70;2.97;;;;;;;8.60;76.64;99877.81;5046269;28;20453;-71
2021/05/09 04:23:17;;;;;;;4.32;3.05;;;;;;;8.68;74.09;99878.72;5046355;28;20033;-70
2021/05/09 04:25:52;;;;;;;3.20;2.40;;;;;;;8.66;75.83;99871.94;5047344;28;20520;-70
2021/05/09 04:28:19;;;;;;;4.50;2.65;;;;;;;8.74;74.06;99869.34;5050967;28;20102;-70
2021/05/09 04:30:45;;;;;;;3.50;1.67;;;;;;;8.76;75.33;99874.47;5046082;28;20036;-71
2021/05/09 04:33:10;;;;;;;2.03;1.80;;;;;;;8.84;74.26;99879.78;5042429;28;20101;-70
2021/05/09 04:35:37;;;;;;;3.00;2.22;;;;;;;8.86;75.30;99876.00;5047769;28;20272;-70
2021/05/09 04:38:03;;;;;;;2.63;1.90;;;;;;;8.88;75.99;99881.13;5050939;28;20405;-70
2021/05/09 04:40:29;;;;;;;4.70;3.10;;;;;;;8.87;76.50;99884.75;5046824;28;20098;-71
2021/05/09 04:42:56;;;;;;;2.92;2.30;;;;;;;8.91;75.03;99886.06;5050480;28;20432;-70
2021/05/09 04:45:22;;;;;;;3.53;2.50;;;;;;;9.00;74.36;99885.13;5049726;28;20029;-70
2021/05/09 04:47:47;;;;;;;3.78;2.75;;;;;;;9.08;74.75;99884.34;5045666;28;20037;-70
2021/05/09 04:50:13;;;;;;;3.72;2.80;;;;;;;9.08;76.18;99882.56;5046424;28;20055;-71
2021/05/09 04:52:39;;;;;;;3.00;2.50;;;;;;;9.19;75.20;99875.34;5039179;28;20109;-70
2021/05/09 04:55:08;;;;;;;3.72;2.80;;;;;;;9.27;75.01;99884.13;5050675;28;20036;-69
2021/05/09 04:57:35;;;;;;;3.95;3.10;;;;;;;9.25;75.80;99880.81;5036679;28;20040;-68
2021/05/09 05:00:01;;;;;;;4.55;3.40;;;;;;;9.30;75.23;99875.88;5051763;28;20063;-69
2021/05/09 05:02:27;;;;;;;3.63;2.60;;;;;;;9.44;74.94;99884.16;5046453;28;20120;-69
2021/05/09 05:04:52;;;;;;;3.55;2.60;;;;;;;9.52;74.11;99890.28;5046534;28;20554;-69
2021/05/09 05:07:18;;;;;;;3.42;2.25;;;;;;;9.70;73.36;99889.34;5046685;28;20043;-68
2021/05/09 05:09:43;;;;;;;3.85;2.30;;;;;;;9.84;73.03;99885.25;5044090;28;20030;-69
2021/05/09 05:12:09;;;;;;;2.50;2.00;;;;;;;9.98;72.84;99888.06;5042729;28;20285;-69
2021/05/09 05:14:35;;;;;;;3.67;2.70;;;;;;;10.12;72.58;99881.31;5048396;28;20036;-69
2021/05/09 05:17:01;;;;;;;3.40;2.58;;;;;;;10.36;71.97;99885.78;5045086;28;20593;-69
2021/05/09 05:19:26;;;;;;;3.00;2.28;;;;;;;10.46;71.58;99888.25;5043033;28;20061;-69
2021/05/09 05:21:51;;;;;;;3.17;2.47;;;;;;;10.56;71.82;99888.13;5048815;28;20493;-69
2021/05/09 05:24:17;;;;;;;2.75;1.80;;;;;;;10.82;71.35;99887.88;5049680;28;20559;-69
2021/05/09 05:26:42;;;;;;;2.28;1.75;;;;;;;11.21;71.04;99895.88;5043183;28;20048;-69
2021/05/09 05:29:08;;;;;;;4.93;3.10;;;;;;;11.79;69.39;99900.88;5044354;28;20414;-69
2021/05/09 05:31:33;;;;;;;3.47;2.40;;;;;;;12.20;67.67;99897.97;5043283;28;20029;-69
2021/05/09 05:34:00;;;;;;;4.05;2.92;;;;;;;12.64;66.54;99899.94;5038781;28;20203;-69
2021/05/09 05:36:25;;;;;;;3.60;1.98;;;;;;;12.98;67.25;99893.28;5037943;28;20449;-69
2021/05/09 05:38:50;;;;;;;6.03;3.60;;;;;;;13.41;63.29;99902.22;5033780;28;20121;-69
2021/05/09 05:41:16;;;;;;;4.32;2.60;;;;;;;13.73;63.56;99892.16;5031782;28;20037;-69
2021/05/09 05:43:41;;;;;;;2.45;2.10;;;;;;;13.91;61.06;99900.56;5039847;28;20117;-69
2021/05/09 05:46:06;;;;;;;4.55;3.45;;;;;;;14.25;61.66;99888.38;5040883;28;20162;-70
2021/05/09 05:48:32;;;;;;;2.88;2.10;;;;;;;14.44;59.84;99890.41;5047624;28;20075;-69
2021/05/09 05:50:58;;;;;;;2.85;2.03;;;;;;;14.62;59.84;99900.59;5038592;28;20072;-69
2021/05/09 05:53:25;;;;;;;3.78;2.60;;;;;;;14.85;60.77;99891.56;5044288;28;20627;-69
2021/05/09 05:55:51;;;;;;;3.50;2.20;;;;;;;15.15;58.31;99891.31;5044075;28;20482;-69
2021/05/09 05:58:18;;;;;;;2.80;1.80;;;;;;;15.43;60.02;99881.38;5039397;28;20041;-69
2021/05/09 06:00:43;;;;;;;3.10;2.08;;;;;;;15.71;59.03;99878.63;5039611;28;20036;-69
2021/05/09 06:03:09;;;;;;;3.03;1.90;;;;;;;16.06;55.68;99875.00;5040627;28;20038;-69
2021/05/09 06:05:34;;;;;;;3.08;2.30;;;;;;;15.99;54.42;99885.66;5037873;28;20029;-69
2021/05/09 06:08:00;;;;;;;5.60;3.30;;;;;;;16.67;54.66;99880.13;5031373;28;20029;-69
2021/05/09 06:10:25;;;;;;;4.18;2.50;;;;;;;17.18;54.23;99879.44;5040361;28;20034;-70
2021/05/09 06:12:53;;;;;;;3.42;2.45;;;;;;;17.26;53.71;99886.41;5044426;28;20033;-70
2021/05/09 06:15:19;;;;;;;3.95;2.83;;;;;;;17.23;53.08;99885.97;5041038;28;20091;-69
2021/05/09 06:17:44;;;;;;;3.47;2.78;;;;;;;17.54;52.52;99880.72;5041937;28;20433;-69
2021/05/09 06:20:10;;;;;;;3.22;2.65;;;;;;;17.87;51.35;99881.59;5041518;28;20037;-70
2021/05/09 06:22:35;;;;;;;3.70;2.22;;;;;;;18.25;51.76;99882.34;5045112;28;20086;-70
2021/05/09 06:25:01;;;;;;;3.72;2.65;;;;;;;18.61;49.96;99888.84;5045281;28;20110;-70
2021/05/09 06:27:26;;;;;;;3.58;2.78;;;;;;;18.59;47.47;99890.94;5042744;28;20033;-70
2021/05/09 06:29:52;;;;;;;3.80;3.00;;;;;;;18.88;46.19;99886.78;5044657;28;20033;-70
2021/05/09 06:32:17;;;;;;;4.68;2.80;;;;;;;19.30;48.26;99894.13;5042341;28;20072;-70
2021/05/09 06:34:43;;;;;;;3.50;2.40;;;;;;;19.75;46.83;99899.16;5042581;28;20108;-70
2021/05/09 06:37:12;;;;;;;3.20;2.38;;;;;;;20.21;44.46;99889.59;5040645;28;20125;-70
2021/05/09 06:39:39;;;;;;;2.88;2.30;;;;;;;20.26;42.90;99892.44;5044099;28;20090;-70
2021/05/09 06:42:06;;;;;;;4.03;2.47;;;;;;;20.20;46.07;99889.84;5041641;28;20045;-70
2021/05/09 06:44:34;;;;;;;3.25;2.55;;;;;;;20.20;42.96;99889.84;5050406;28;20056;-70
2021/05/09 06:47:01;;;;;;;3.22;2.40;;;;;;;20.21;46.40;99886.91;5043631;28;20033;-70
2021/05/09 06:49:27;;;;;;;2.83;2.10;;;;;;;20.43;43.91;99883.72;5053738;28;20048;-70
2021/05/09 06:51:53;;;;;;;2.80;2.10;;;;;;;20.82;44.63;99889.44;5050668;28;20307;-70
2021/05/09 06:54:19;;;;;;;3.20;2.13;;;;;;;21.46;43.02;99886.78;5043341;28;20037;-70
2021/05/09 06:56:44;;;;;;;2.97;1.75;;;;;;;21.95;43.31;99885.28;5048078;28;20737;-70
2021/05/09 06:59:09;;;;;;;3.22;1.65;;;;;;;22.64;42.18;99878.84;5045287;28;20033;-70
2021/05/09 07:01:35;;;;;;;3.35;2.15;;;;;;;23.18;41.91;99880.97;5044655;28;20041;-70
2021/05/09 07:04:00;;;;;;;2.22;1.70;;;;;;;23.53;39.71;99883.28;5039851;28;20053;-70
2021/05/09 07:06:25;;;;;;;2.17;1.60;;;;;;;24.04;41.09;99888.41;5045205;28;20410;-70
2021/05/09 07:08:51;;;;;;;3.25;1.95;;;;;;;24.43;37.76;99882.75;5040130;28;20037;-70
2021/05/09 07:11:16;;;;;;;2.53;1.80;;;;;;;24.35;39.27;99887.56;5033720;28;20044;-70
2021/05/09 07:13:41;;;;;;;3.13;2.10;;;;;;;24.36;38.73;99888.41;5042577;28;20084;-70
2021/05/09 07:16:07;;;;;;;3.88;2.20;;;;;;;24.88;37.43;99881.47;5041819;28;20283;-71
2021/05/09 07:18:33;;;;;;;3.45;2.22;;;;;;;24.98;35.67;99885.06;5043007;28;20115;-70
2021/05/09 07:21:01;;;;;;;2.30;1.60;;;;;;;24.87;38.11;99886.06;5047962;28;20392;-70
2021/05/09 07:23:27;;;;;;;2.20;1.50;;;;;;;25.30;35.59;99872.50;5040648;28;20811;-70
2021/05/09 07:25:53;;;;;;;2.55;1.65;;;;;;;25.14;35.31;99880.50;5046610;28;20051;-71
2021/05/09 07:28:20;;;;;;;2.95;2.17;;;;;;;25.76;34.98;99878.03;5044014;28;20107;-70
2021/05/09 07:30:46;;;;;;;3.20;2.30;;;;;;;26.11;32.95;99871.84;5042939;28;20434;-70
2021/05/09 07:33:13;;;;;;;3.42;1.80;;;;;;;26.54;31.68;99874.31;5040311;28;20045;-70
2021/05/09 07:35:40;;;;;;;2.30;1.58;;;;;;;26.64;34.65;99875.09;5049177;28;20502;-70
2021/05/09 07:38:08;;;;;;;2.30;1.67;;;;;;;26.70;34.58;99867.78;5046052;28;20083;-73
2021/05/09 07:40:33;;;;;;;2.53;1.70;;;;;;;27.19;33.08;99861.66;5028976;28;20405;-71
2021/05/09 07:42:58;;;;;;;2.42;1.50;;;;;;;27.25;33.45;99855.13;5045107;28;20045;-70
2021/05/09 07:45:24;;;;;;;2.58;1.80;;;;;;;26.83;31.72;99845.47;5053891;28;20037;-70
2021/05/09 07:47:50;;;;;;;2.65;1.95;;;;;;;27.40;31.82;99842.56;5048181;28;20048;-70
2021/05/09 07:50:18;;;;;;;2.85;1.75;;;;;;;27.29;32.61;99839.91;5044937;28;20375;-70
2021/05/09 07:52:44;;;;;;;2.85;1.70;;;;;;;27.35;31.97;99831.72;5043024;28;20108;-70
2021/05/09 07:55:11;;;;;;;3.53;1.85;;;;;;;27.41;30.33;99830.59;5046195;28;20407;-70
2021/05/09 07:57:36;;;;;;;4.05;1.50;;;;;;;27.28;31.99;99823.88;5039908;28;20029;-70
2021/05/09 08:00:07;;;;;;;3.40;1.95;;;;;;;27.24;31.22;99828.25;5049236;28;20079;-71
2021/05/09 08:02:32;;;;;;;3.05;1.50;;;;;;;27.74;30.39;99823.56;5043335;28;20041;-71
2021/05/09 08:04:58;;;;;;;3.25;1.60;;;;;;;28.44;30.45;99827.91;5047168;28;20041;-70
2021/05/09 08:07:23;;;;;;;2.35;1.50;;;;;;;28.45;30.59;99824.88;5049308;28;20037;-71
2021/05/09 08:09:48;;;;;;;3.20;2.05;;;;;;;28.04;30.07;99829.91;5044188;28;20033;-70
2021/05/09 08:12:13;;;;;;;3.00;1.90;;;;;;;28.01;32.11;99831.28;5051242;28;20029;-70
2021/05/09 08:14:39;;;;;;;2.33;1.60;;;;;;;28.22;31.14;99826.50;5040842;28;20640;-71
2021/05/09 08:17:04;;;;;;;2.33;1.40;;;;;;;28.86;30.23;99816.28;5041940;28;20498;-70
2021/05/09 08:19:29;;;;;;;2.58;1.20;;;;;;;29.32;30.62;99820.34;5046568;28;20061;-70
2021/05/09 08:21:55;;;;;;;3.13;1.90;;;;;;;30.14;28.50;99822.66;5050627;28;20041;-70
2021/05/09 08:24:20;;;;;;;4.15;2.00;;;;;;;30.16;28.55;99825.88;5039451;28;20706;-70
2021/05/09 08:26:46;;;;;;;4.78;2.10;;;;;;;30.24;27.72;99824.38;5049672;28;20478;-70
2021/05/09 08:29:11;;;;;;;2.55;1.60;;;;;;;29.56;29.07;99810.22;5044559;28;20044;-70
2021/05/09 08:31:37;;;;;;;2.80;1.40;;;;;;;30.12;29.20;99816.69;5045348;28;20148;-70
2021/05/09 08:34:03;;;;;;;2.85;1.80;;;;;;;29.89;28.67;99817.63;5044787;28;20029;-70
2021/05/09 08:36:28;;;;;;;1.95;1.38;;;;;;;30.26;29.58;99811.28;5044860;28;20033;-71
2021/05/09 08:38:54;;;;;;;5.25;2.15;;;;;;;30.92;27.94;99811.94;5041329;28;20040;-70
2021/05/09 08:41:19;;;;;;;3.22;1.90;;;;;;;31.41;26.54;99813.06;5044084;28;20040;-70
2021/05/09 08:43:45;;;;;;;2.50;1.33;;;;;;;31.53;26.42;99809.78;5042129;28;20033;-71
2021/05/09 08:46:13;;;;;;;2.50;1.27;;;;;;;31.81;27.13;99805.03;5037711;28;20037;-71
2021/05/09 08:48:40;;;;;;;2.75;1.27;;;;;;;32.49;26.25;99804.91;5037344;28;20501;-70
2021/05/09 08:51:05;;;;;;;2.72;1.48;;;;;;;33.02;25.02;99803.19;5048266;28;20037;-71
2021/05/09 08:53:32;;;;;;;2.30;1.38;;;;;;;33.55;24.93;99789.22;5046266;28;20040;-71
2021/05/09 08:55:57;;;;;;;2.85;1.35;;;;;;;32.88;24.40;99787.69;5041586;28;20041;-70
2021/05/09 08:58:23;;;;;;;2.67;1.52;;;;;;;33.17;24.37;99789.84;5042365;28;20216;-71
2021/05/09 09:00:48;;;;;;;3.08;1.42;;;;;;;32.53;25.01;99790.31;5041159;28;20033;-71
2021/05/09 09:03:14;;;;;;;1.92;1.30;;;;;;;32.89;23.57;99788.50;5041953;28;20045;-70
2021/05/09 09:05:42;;;;;;;3.28;1.50;;;;;;;33.70;24.91;99776.16;5049747;28;20028;-71
2021/05/09 09:08:09;;;;;;;2.03;1.10;;;;;;;33.46;23.88;99773.91;5048398;28;20083;-70
2021/05/09 09:10:44;;;;;;;2.63;1.20;;;;;;;32.95;23.11;99768.06;5039446;28;20537;-70
2021/05/09 09:13:21;;;;;;;2.55;1.00;;;;;;;31.87;26.71;99760.03;5041186;28;20033;-70
2021/05/09 09:16:01;;;;;;;2.58;1.25;;;;;;;31.62;26.51;99761.47;5046658;28;20532;-71
2021/05/09 09:18:40;;;;;;;2.17;1.20;;;;;;;31.80;26.13;99745.19;5038334;28;20034;-70
2021/05/09 09:21:31;;;;;;;2.55;1.30;;;;;;;31.00;27.52;99739.44;5045779;28;20037;-70
2021/05/09 09:23:56;;;;;;;;;;;;;;;30.63;27.04;99736.63;5035026;28;20037;-70
2021/05/09 09:26:25;;;;;;;1.85;1.10;;;;;;;30.72;27.88;99730.44;5039594;28;19963;-70
2021/05/09 09:28:50;;;;;;;2.38;0.93;;;;;;;30.68;28.60;99725.63;5041520;28;20040;-70
2021/05/09 09:31:15;;;;;;;1.73;0.90;;;;;;;30.61;29.91;99729.88;5036880;28;20033;-70
2021/05/09 09:33:50;;;;;;;1.67;1.05;;;;;;;30.58;29.98;99725.00;5036166;28;20275;-70
2021/05/09 09:36:19;;;;;;;1.25;0.90;;;;;;;30.99;27.33;99724.16;5048102;28;20524;-70
2021/05/09 09:38:51;;;;;;;0.93;0.70;;;;;;;30.60;29.09;99718.13;5036020;28;20032;-70
2021/05/09 09:41:20;;;;;;;1.58;0.80;;;;;;;30.60;29.16;99709.13;5042308;28;20037;-69
2021/05/09 09:44:03;;;;;;;2.05;0.98;;;;;;;30.95;29.05;99710.31;5040135;28;20351;-70
2021/05/09 09:46:29;;;;;;;0.75;0.60;;;;;;;30.89;27.39;99709.63;5036151;28;20040;-70
2021/05/09 09:48:56;;;;;;;1.13;0.75;;;;;;;30.83;29.22;99699.94;5044767;28;20045;-70
2021/05/09 09:51:21;;;;;;;1.65;0.88;;;;;;;30.93;29.05;99698.09;5041767;28;20029;-70
2021/05/09 09:53:47;;;;;;;3.92;1.85;;;;;;;31.23;25.96;99696.56;5050977;28;20036;-70
2021/05/09 09:56:19;;;;;;;1.80;1.00;;;;;;;31.47;25.75;99690.81;5040028;28;20041;-70
2021/05/09 09:58:56;;;;;;;1.58;0.90;;;;;;;31.45;25.80;99691.13;5050366;28;20029;-70
2021/05/09 10:01:32;;;;;;;0.93;0.60;;;;;;;30.91;25.69;99682.00;5033509;28;20105;-70
2021/05/09 10:04:00;;;;;;;1.10;0.68;;;;;;;30.48;28.47;99682.38;5036646;28;20037;-69
2021/05/09 10:06:27;;;;;;;1.23;0.80;;;;;;;30.50;27.57;99679.34;5043701;28;20091;-69
2021/05/09 10:08:54;;;;;;;2.20;0.80;;;;;;;29.95;25.30;99674.69;5048518;28;20025;-69
2021/05/09 10:11:20;;;;;;;1.63;0.77;;;;;;;30.18;24.61;99670.97;5050568;28;20037;-68
2021/05/09 10:13:47;;;;;;;1.30;0.80;;;;;;;30.23;24.94;99667.31;5046906;28;20037;-69
2021/05/09 10:16:14;;;;;;;1.35;0.77;;;;;;;29.85;24.80;99660.13;5042483;28;20044;-69
2021/05/09 10:18:45;;;;;;;1.30;0.80;;;;;;;29.75;25.60;99663.06;5049732;28;20307;-68
2021/05/09 10:21:12;;;;;;;2.33;0.80;;;;;;;29.53;25.06;99651.97;5042276;28;20360;-68
2021/05/09 10:24:14;;;;;;;1.88;0.88;;;;;;;29.22;24.94;99652.50;5041723;28;20524;-67
2021/05/09 10:26:51;;;;;;;1.90;0.88;;;;;;;29.48;25.05;99649.34;5050359;28;20040;-68
2021/05/09 10:29:38;;;;;;;3.03;0.80;;;;;;;29.40;24.47;99654.38;5037389;28;20159;-68
2021/05/09 10:32:19;;;;;;;2.67;1.02;;;;;;;29.45;24.24;99642.59;5034311;28;20034;-68
2021/05/09 10:34:54;;;;;;;2.40;0.77;;;;;;;29.58;24.21;99643.72;5040648;28;20039;-68
2021/05/09 10:37:52;;;;;;;2.88;1.20;;;;;;;29.44;24.70;99651.88;5039027;28;20033;-67
2021/05/09 10:40:17;;;;;;;2.10;0.93;;;;;;;29.26;25.99;99639.91;5011327;28;20127;-68
2021/05/09 10:42:42;;;;;;;1.83;1.00;;;;;;;29.08;26.17;99647.03;5034923;28;20033;-67
2021/05/09 10:45:08;;;;;;;2.17;0.98;;;;;;;29.15;25.74;99643.91;5045220;28;20065;-67
2021/05/09 10:47:33;;;;;;;1.95;0.95;;;;;;;29.24;25.46;99644.84;5049017;28;20559;-68
2021/05/09 10:50:14;;;;;;;1.27;0.85;;;;;;;29.15;24.66;99643.91;5046107;28;20059;-67
2021/05/09 10:52:44;;;;;;;1.98;1.00;;;;;;;28.97;26.08;99631.91;5028202;28;20036;-67
2021/05/09 10:55:39;;;;;;;2.80;1.13;;;;;;;29.09;25.40;99626.03;5043399;28;20436;-67
2021/05/09 10:58:06;;;;;;;2.33;0.88;;;;;;;29.09;24.76;99632.28;5035079;28;20050;-67
2021/05/09 11:01:10;;;;;;;1.70;0.90;;;;;;;29.14;25.13;99626.75;5040862;28;20095;-67
2021/05/09 11:03:41;;;;;;;1.52;0.98;;;;;;;29.09;25.77;99617.88;5037127;28;20040;-67
2021/05/09 11:06:11;;;;;;;1.63;0.90;;;;;;;29.20;25.05;99622.84;5043788;28;20096;-68
2021/05/09 11:08:43;;;;;;;1.50;0.83;;;;;;;29.15;26.14;99619.38;5037672;28;20374;-68
2021/05/09 11:11:18;;;;;;;2.05;0.90;;;;;;;29.30;26.24;99613.72;5044789;28;20121;-68
2021/05/09 11:16:24;;;;;;;1.88;1.02;;;;;;;29.29;25.87;99620.25;5055189;28;20040;-67
2021/05/09 11:19:13;;;;;;;1.60;0.80;;;;;;;29.16;24.67;99623.75;5047782;28;20040;-67
2021/05/09 11:21:47;;;;;;;2.95;0.90;;;;;;;29.02;25.77;99610.84;5039636;28;20102;-67
2021/05/09 11:24:21;;;;;;;2.97;1.00;;;;;;;29.10;25.77;99605.88;5042585;28;20124;-66
2021/05/09 11:26:49;;;;;;;3.55;0.90;;;;;;;29.06;26.59;99611.09;5046894;28;20049;-68
2021/05/09 11:29:22;;;;;;;1.40;0.90;;;;;;;29.19;25.58;99609.53;5041949;28;20048;-67
2021/05/09 11:31:58;;;;;;;1.40;0.90;;;;;;;29.06;26.21;99597.47;5047374;28;20040;-68
2021/05/09 11:34:26;;;;;;;1.50;0.80;;;;;;;29.18;25.81;99592.41;5043520;28;20128;-69
2021/05/09 11:36:57;;;;;;;1.52;0.93;;;;;;;29.29;26.38;99586.75;5036274;28;20044;-67
2021/05/09 11:39:29;;;;;;;1.98;1.10;;;;;;;29.24;27.18;99573.25;5052112;28;20041;-67
2021/05/09 11:41:57;;;;;;;2.63;1.05;;;;;;;29.38;26.40;99584.97;5039343;28;20154;-68